Time;durP1;ratioP1;P1;durP2;ratioP2;P2;SDS_P1;SDS_P2;PMS_P1;PMS_P2;Temp;Humidity;BMP_temperature;BMP_pressure;BME280_temperature;BME280_humidity;BME280_pressure;Samples;Min_cycle;Max_cycle;Signal;HPM_P1;HPM_P2
2020/12/28 00:06:30;;;;;;;6.10;5.18;;;;;;;;;;4150862;34;20126;-64
2020/12/28 00:08:56;;;;;;;5.78;5.18;;;;;;;;;;4138242;34;20181;-64
2020/12/28 00:11:22;;;;;;;7.82;5.07;;;;;;;;;;4138098;34;20130;-64
2020/12/28 00:13:48;;;;;;;5.62;4.95;;;;;;;;;;4149358;34;20580;-64
2020/12/28 00:16:14;;;;;;;6.40;5.40;;;;;;;;;;4137812;34;20099;-64
2020/12/28 00:18:41;;;;;;;6.85;5.55;;;;;;;;;;4138092;34;20103;-65
2020/12/28 00:21:07;;;;;;;5.87;5.25;;;;;;;;;;4138160;34;20103;-64
2020/12/28 00:23:34;;;;;;;6.28;5.45;;;;;;;;;;4138342;34;20190;-64
2020/12/28 00:26:00;;;;;;;6.18;5.60;;;;;;;;;;4150951;34;20111;-64
2020/12/28 00:28:27;;;;;;;5.95;5.32;;;;;;;;;;4127155;34;20104;-64
2020/12/28 00:30:52;;;;;;;6.97;5.12;;;;;;;;;;4126913;34;20095;-64
2020/12/28 00:33:19;;;;;;;5.68;5.12;;;;;;;;;;4149473;34;20496;-65
2020/12/28 00:35:44;;;;;;;6.55;5.95;;;;;;;;;;4126813;34;20248;-64
2020/12/28 00:38:10;;;;;;;5.93;5.32;;;;;;;;;;4138115;34;20142;-64
2020/12/28 00:40:36;;;;;;;6.93;6.25;;;;;;;;;;4150592;34;20146;-64
2020/12/28 00:43:02;;;;;;;7.60;6.90;;;;;;;;;;4138106;34;20137;-64
2020/12/28 00:45:28;;;;;;;7.35;6.75;;;;;;;;;;4138203;34;20131;-64
2020/12/28 00:47:54;;;;;;;8.75;7.28;;;;;;;;;;4150637;34;20547;-64
2020/12/28 00:50:20;;;;;;;9.07;8.18;;;;;;;;;;4127052;34;20613;-64
2020/12/28 00:52:46;;;;;;;11.00;9.45;;;;;;;;;;4137909;34;20134;-64
2020/12/28 00:55:12;;;;;;;12.05;10.73;;;;;;;;;;4138014;34;20111;-64
2020/12/28 00:57:38;;;;;;;13.38;11.98;;;;;;;;;;4126863;34;20225;-63
2020/12/28 01:00:04;;;;;;;24.58;19.42;;;;;;;;;;4149057;34;20559;-63
2020/12/28 01:02:30;;;;;;;18.30;15.73;;;;;;;;;;4138011;34;20111;-64
2020/12/28 01:04:56;;;;;;;15.57;13.75;;;;;;;;;;4148819;34;20550;-64
2020/12/28 01:07:22;;;;;;;12.10;9.50;;;;;;;;;;4126758;34;20528;-64
2020/12/28 01:09:49;;;;;;;8.98;7.03;;;;;;;;;;4150196;34;20624;-65
2020/12/28 01:12:15;;;;;;;8.82;7.93;;;;;;;;;;4137951;34;20195;-65
2020/12/28 01:14:41;;;;;;;7.68;6.68;;;;;;;;;;4138033;34;20147;-65
2020/12/28 01:17:07;;;;;;;7.57;6.47;;;;;;;;;;4137725;34;20123;-65
2020/12/28 01:19:33;;;;;;;7.47;6.70;;;;;;;;;;4150236;34;20484;-65
2020/12/28 01:21:59;;;;;;;7.20;6.25;;;;;;;;;;4115568;34;20143;-65
2020/12/28 01:24:25;;;;;;;7.28;6.57;;;;;;;;;;4126487;34;20139;-65
2020/12/28 01:26:50;;;;;;;7.78;7.07;;;;;;;;;;4126966;34;20593;-65
2020/12/28 01:29:16;;;;;;;8.05;6.82;;;;;;;;;;4136536;34;20212;-64
2020/12/28 01:31:42;;;;;;;7.47;6.55;;;;;;;;;;4137523;34;20159;-65
2020/12/28 01:34:08;;;;;;;7.03;6.32;;;;;;;;;;4137470;34;20526;-65
2020/12/28 01:36:34;;;;;;;8.23;7.43;;;;;;;;;;4137698;34;20535;-65
2020/12/28 01:39:00;;;;;;;7.40;6.22;;;;;;;;;;4126228;34;20216;-65
2020/12/28 01:41:26;;;;;;;8.48;6.87;;;;;;;;;;4137656;34;20212;-65
2020/12/28 01:43:52;;;;;;;7.40;6.70;;;;;;;;;;4148551;34;20476;-64
2020/12/28 01:46:18;;;;;;;7.10;6.30;;;;;;;;;;4137761;34;20111;-65
2020/12/28 01:48:44;;;;;;;8.20;7.30;;;;;;;;;;4115508;34;20518;-65
2020/12/28 01:51:10;;;;;;;7.85;7.05;;;;;;;;;;4126271;34;20137;-65
2020/12/28 01:53:35;;;;;;;8.45;6.70;;;;;;;;;;4150172;34;20115;-65
2020/12/28 01:56:02;;;;;;;7.47;6.65;;;;;;;;;;4126605;34;20127;-65
2020/12/28 01:58:29;;;;;;;8.30;7.37;;;;;;;;;;4137484;34;20099;-65
2020/12/28 02:00:55;;;;;;;8.27;7.18;;;;;;;;;;4148746;34;20094;-64
2020/12/28 02:03:21;;;;;;;7.72;6.93;;;;;;;;;;4126251;34;20628;-64
2020/12/28 02:05:48;;;;;;;7.62;6.82;;;;;;;;;;4137214;34;20131;-64
2020/12/28 02:08:14;;;;;;;7.60;6.90;;;;;;;;;;4115306;34;20114;-60
2020/12/28 02:10:40;;;;;;;7.15;6.28;;;;;;;;;;4125984;34;20597;-63
2020/12/28 02:13:06;;;;;;;7.40;6.70;;;;;;;;;;4148397;34;20116;-63
2020/12/28 02:15:32;;;;;;;7.50;6.80;;;;;;;;;;4126250;34;20154;-63
2020/12/28 02:17:58;;;;;;;8.00;7.28;;;;;;;;;;4126093;34;20541;-64
2020/12/28 02:20:24;;;;;;;7.43;6.62;;;;;;;;;;4137114;34;20098;-64
2020/12/28 02:22:49;;;;;;;8.60;7.20;;;;;;;;;;4126078;34;20127;-63
2020/12/28 02:25:15;;;;;;;7.82;7.12;;;;;;;;;;4149611;34;20226;-64
2020/12/28 02:27:41;;;;;;;7.68;6.87;;;;;;;;;;4125977;34;20468;-65
2020/12/28 02:30:07;;;;;;;7.85;7.05;;;;;;;;;;4149830;34;20160;-64
2020/12/28 02:32:33;;;;;;;8.57;7.68;;;;;;;;;;4149694;34;20224;-64
2020/12/28 02:34:59;;;;;;;8.15;7.35;;;;;;;;;;4136858;34;20126;-64
2020/12/28 02:37:25;;;;;;;8.75;7.87;;;;;;;;;;4149619;34;20436;-64
2020/12/28 02:39:51;;;;;;;8.40;7.60;;;;;;;;;;4126282;34;20126;-63
2020/12/28 02:42:17;;;;;;;8.93;8.02;;;;;;;;;;4139156;34;20099;-63
2020/12/28 02:44:43;;;;;;;8.45;7.65;;;;;;;;;;4117091;34;20131;-63
2020/12/28 02:47:08;;;;;;;8.95;8.05;;;;;;;;;;4151778;34;20123;-63
2020/12/28 02:49:34;;;;;;;8.68;7.87;;;;;;;;;;4139146;34;20635;-63
2020/12/28 02:52:00;;;;;;;7.93;7.12;;;;;;;;;;4139050;34;20230;-64
2020/12/28 02:54:26;;;;;;;8.43;7.62;;;;;;;;;;4127723;34;20109;-64
2020/12/28 02:56:52;;;;;;;8.48;7.68;;;;;;;;;;4151485;34;20104;-64
2020/12/28 02:59:18;;;;;;;8.75;7.95;;;;;;;;;;4115986;34;20630;-64
2020/12/28 03:01:44;;;;;;;9.73;8.05;;;;;;;;;;4127935;34;20216;-64
2020/12/28 03:04:10;;;;;;;8.95;8.05;;;;;;;;;;4137900;34;20098;-64
2020/12/28 03:06:36;;;;;;;9.13;7.82;;;;;;;;;;4151949;34;20145;-64
2020/12/28 03:09:02;;;;;;;9.55;8.57;;;;;;;;;;4164569;34;20229;-64
2020/12/28 03:11:28;;;;;;;9.35;8.45;;;;;;;;;;4162613;34;20210;-64
2020/12/28 03:13:54;;;;;;;9.40;8.50;;;;;;;;;;4164052;34;20142;-64
2020/12/28 03:16:23;;;;;;;9.05;8.15;;;;;;;;;;4164465;34;20103;-64
2020/12/28 03:18:51;;;;;;;8.90;8.10;;;;;;;;;;4140892;34;20238;-61
2020/12/28 03:21:17;;;;;;;9.43;8.45;;;;;;;;;;4152002;34;20103;-60
2020/12/28 03:23:43;;;;;;;8.73;7.93;;;;;;;;;;4164436;34;20138;-60
2020/12/28 03:26:09;;;;;;;9.18;8.27;;;;;;;;;;4163591;34;20154;-60
2020/12/28 03:28:35;;;;;;;10.07;8.98;;;;;;;;;;4163963;34;20214;-61
2020/12/28 03:31:01;;;;;;;10.80;9.30;;;;;;;;;;4151060;34;20137;-59
2020/12/28 03:33:27;;;;;;;10.50;9.27;;;;;;;;;;4164481;34;20095;-59
2020/12/28 03:35:53;;;;;;;10.05;8.82;;;;;;;;;;4164486;34;20098;-59
2020/12/28 03:38:19;;;;;;;14.45;10.00;;;;;;;;;;4140783;34;20099;-59
2020/12/28 03:40:45;;;;;;;11.93;10.52;;;;;;;;;;4164813;34;20503;-60
2020/12/28 03:43:10;;;;;;;11.68;10.20;;;;;;;;;;4164520;34;20119;-58
2020/12/28 03:45:36;;;;;;;10.07;8.98;;;;;;;;;;4140610;34;20153;-60
2020/12/28 03:48:02;;;;;;;10.10;9.10;;;;;;;;;;4164492;34;20464;-60
2020/12/28 03:50:28;;;;;;;11.32;10.07;;;;;;;;;;4151950;34;20111;-60
2020/12/28 03:52:54;;;;;;;12.32;9.88;;;;;;;;;;4128882;34;20137;-60
2020/12/28 03:55:20;;;;;;;12.65;10.27;;;;;;;;;;4164613;34;20511;-60
2020/12/28 03:57:46;;;;;;;11.75;9.80;;;;;;;;;;4152123;34;20491;-60
2020/12/28 04:00:12;;;;;;;12.40;10.85;;;;;;;;;;4164729;34;20103;-59
2020/12/28 04:02:38;;;;;;;11.43;9.85;;;;;;;;;;4151742;34;20126;-60
2020/12/28 04:05:05;;;;;;;17.50;11.82;;;;;;;;;;4149121;34;20139;-59
2020/12/28 04:07:31;;;;;;;13.98;10.77;;;;;;;;;;4149791;34;20121;-59
2020/12/28 04:09:58;;;;;;;17.95;12.32;;;;;;;;;;4145957;34;20114;-59
2020/12/28 04:12:24;;;;;;;19.15;13.30;;;;;;;;;;4150843;34;20127;-59
2020/12/28 04:14:50;;;;;;;16.30;11.70;;;;;;;;;;4150674;34;20598;-59
2020/12/28 04:17:16;;;;;;;13.90;10.27;;;;;;;;;;4150779;34;20126;-60
2020/12/28 04:19:42;;;;;;;15.07;11.25;;;;;;;;;;4150777;34;20127;-59
2020/12/28 04:22:07;;;;;;;13.55;10.32;;;;;;;;;;4136018;34;20123;-60
2020/12/28 04:24:35;;;;;;;16.17;11.65;;;;;;;;;;4151025;34;20257;-60
2020/12/28 04:27:01;;;;;;;16.52;12.05;;;;;;;;;;4146450;34;20117;-59
2020/12/28 04:29:27;;;;;;;18.70;12.37;;;;;;;;;;4150925;34;20202;-59
2020/12/28 04:31:52;;;;;;;13.93;11.32;;;;;;;;;;4150677;34;20103;-60
2020/12/28 04:34:18;;;;;;;14.10;10.70;;;;;;;;;;4150632;34;20121;-59
2020/12/28 04:36:44;;;;;;;12.73;9.50;;;;;;;;;;4144876;34;20270;-59
2020/12/28 04:39:10;;;;;;;12.23;9.50;;;;;;;;;;4149064;34;20131;-59
2020/12/28 04:41:36;;;;;;;10.30;8.32;;;;;;;;;;4144061;34;20239;-60
2020/12/28 04:44:02;;;;;;;11.43;9.10;;;;;;;;;;4149342;34;20559;-59
2020/12/28 04:46:29;;;;;;;9.93;8.93;;;;;;;;;;4138131;34;20158;-59
2020/12/28 04:48:56;;;;;;;10.20;8.43;;;;;;;;;;4145897;34;20127;-59
2020/12/28 04:51:22;;;;;;;10.82;8.82;;;;;;;;;;4138164;34;20115;-59
2020/12/28 04:53:50;;;;;;;11.75;8.77;;;;;;;;;;4145278;34;20483;-59
2020/12/28 04:56:17;;;;;;;10.70;8.57;;;;;;;;;;4148982;34;20103;-59
2020/12/28 04:58:43;;;;;;;9.13;7.90;;;;;;;;;;4150209;34;20553;-59
2020/12/28 05:01:09;;;;;;;8.98;7.97;;;;;;;;;;4150159;34;20114;-60
2020/12/28 05:03:35;;;;;;;10.00;7.95;;;;;;;;;;4149990;34;20127;-59
2020/12/28 05:06:01;;;;;;;9.40;8.32;;;;;;;;;;4146003;34;20103;-60
2020/12/28 05:08:26;;;;;;;8.82;7.93;;;;;;;;;;4163309;34;20095;-60
2020/12/28 05:10:53;;;;;;;9.27;8.23;;;;;;;;;;4151065;34;20131;-60
2020/12/28 05:13:19;;;;;;;11.00;9.52;;;;;;;;;;4163728;34;20120;-61
2020/12/28 05:15:51;;;;;;;10.60;9.48;;;;;;;;;;4151151;34;20102;-62
2020/12/28 05:18:18;;;;;;;12.93;10.10;;;;;;;;;;4151308;34;20111;-60
2020/12/28 05:20:45;;;;;;;9.73;8.73;;;;;;;;;;4139792;34;20094;-60
2020/12/28 05:23:15;;;;;;;10.02;9.00;;;;;;;;;;4151156;34;20184;-61
2020/12/28 05:25:45;;;;;;;8.93;8.00;;;;;;;;;;4151250;34;20571;-59
2020/12/28 05:28:20;;;;;;;10.27;9.27;;;;;;;;;;4163549;34;20528;-60
2020/12/28 05:30:46;;;;;;;;;;;;;;;;;;4164045;34;20111;-60
2020/12/28 05:33:12;;;;;;;;;;;;;;;;;;4163907;34;20394;-60
2020/12/28 05:35:38;;;;;;;11.30;9.48;;;;;;;;;;4163444;34;20371;-60
2020/12/28 05:38:09;;;;;;;10.95;9.93;;;;;;;;;;4163516;34;20126;-60
2020/12/28 05:40:41;;;;;;;11.32;10.13;;;;;;;;;;4163680;34;20140;-60
2020/12/28 05:43:09;;;;;;;11.95;10.73;;;;;;;;;;4150994;34;20110;-58
2020/12/28 05:45:42;;;;;;;14.13;12.68;;;;;;;;;;4163769;34;20114;-59
2020/12/28 05:48:07;;;;;;;12.57;11.15;;;;;;;;;;4140219;34;20095;-60
2020/12/28 05:50:33;;;;;;;14.43;12.93;;;;;;;;;;4139812;34;20103;-59
2020/12/28 05:53:00;;;;;;;14.15;12.40;;;;;;;;;;4163430;34;20125;-61
2020/12/28 05:55:28;;;;;;;17.73;15.77;;;;;;;;;;4163322;34;20098;-60
2020/12/28 05:57:54;;;;;;;16.30;13.75;;;;;;;;;;4163386;34;20230;-60
2020/12/28 06:00:20;;;;;;;12.75;11.27;;;;;;;;;;4163308;34;20095;-60
2020/12/28 06:02:46;;;;;;;14.10;12.45;;;;;;;;;;4163292;34;20101;-59
2020/12/28 06:05:17;;;;;;;11.32;10.13;;;;;;;;;;4148300;34;20238;-59
2020/12/28 06:07:43;;;;;;;11.27;10.18;;;;;;;;;;4143722;34;20088;-59
2020/12/28 06:10:09;;;;;;;12.93;9.95;;;;;;;;;;4137196;34;20123;-59
2020/12/28 06:12:36;;;;;;;10.20;9.20;;;;;;;;;;4143213;34;20121;-60
2020/12/28 06:15:03;;;;;;;10.25;8.68;;;;;;;;;;4149277;34;20141;-60
2020/12/28 06:17:33;;;;;;;12.25;10.73;;;;;;;;;;4149781;34;20134;-60
2020/12/28 06:20:00;;;;;;;9.43;8.43;;;;;;;;;;4149705;34;20622;-60
2020/12/28 06:22:26;;;;;;;9.77;8.75;;;;;;;;;;4147906;34;20532;-60
2020/12/28 06:24:56;;;;;;;10.70;8.68;;;;;;;;;;4149569;34;20175;-59
2020/12/28 06:27:48;;;;;;;11.75;9.45;;;;;;;;;;4149829;34;20103;-60
2020/12/28 06:30:21;;;;;;;11.40;9.75;;;;;;;;;;4147564;34;20118;-61
2020/12/28 06:32:52;;;;;;;9.23;8.25;;;;;;;;;;4149681;34;20109;-59
2020/12/28 06:35:18;;;;;;;10.23;9.20;;;;;;;;;;4147060;34;20127;-61
2020/12/28 06:37:45;;;;;;;11.30;10.02;;;;;;;;;;4149616;34;20129;-61
2020/12/28 06:40:12;;;;;;;11.73;9.98;;;;;;;;;;4149711;34;20103;-60
2020/12/28 06:42:39;;;;;;;11.82;9.77;;;;;;;;;;4149652;34;20127;-61
2020/12/28 06:45:31;;;;;;;12.15;10.85;;;;;;;;;;4149506;34;20134;-60
2020/12/28 06:47:56;;;;;;;14.45;10.65;;;;;;;;;;4147504;34;20130;-59
2020/12/28 06:50:22;;;;;;;15.90;11.60;;;;;;;;;;4149573;34;20108;-59
2020/12/28 06:52:52;;;;;;;16.52;12.65;;;;;;;;;;4144101;34;20593;-58
2020/12/28 06:55:18;;;;;;;15.13;12.37;;;;;;;;;;4148235;34;20240;-59
2020/12/28 06:57:44;;;;;;;15.70;12.57;;;;;;;;;;4132428;34;20100;-59
2020/12/28 07:00:21;;;;;;;16.85;12.20;;;;;;;;;;4149504;34;20150;-60
2020/12/28 07:02:56;;;;;;;17.75;12.32;;;;;;;;;;4149382;34;20098;-59
2020/12/28 07:05:23;;;;;;;12.82;10.77;;;;;;;;;;4147084;34;20139;-60
2020/12/28 07:07:49;;;;;;;14.07;11.38;;;;;;;;;;4149342;34;20527;-60
2020/12/28 07:10:22;;;;;;;13.52;10.90;;;;;;;;;;4149023;34;20103;-60
2020/12/28 07:12:48;;;;;;;11.82;10.63;;;;;;;;;;4149310;34;20540;-61
2020/12/28 07:15:18;;;;;;;12.82;10.63;;;;;;;;;;4149307;34;20141;-61
2020/12/28 07:17:44;;;;;;;12.50;10.77;;;;;;;;;;4143522;34;20131;-59
2020/12/28 07:20:12;;;;;;;12.23;9.85;;;;;;;;;;4148021;34;20139;-60
2020/12/28 07:22:39;;;;;;;12.45;10.23;;;;;;;;;;4142882;34;20252;-59
2020/12/28 07:25:06;;;;;;;11.80;10.52;;;;;;;;;;4147624;34;20118;-59
2020/12/28 07:27:32;;;;;;;12.43;10.60;;;;;;;;;;4151651;34;20110;-59
2020/12/28 07:29:58;;;;;;;12.95;11.55;;;;;;;;;;4151089;34;20114;-58
2020/12/28 07:32:24;;;;;;;13.77;10.77;;;;;;;;;;4151334;34;20123;-59
2020/12/28 07:34:56;;;;;;;12.15;10.75;;;;;;;;;;4146007;34;20117;-60
2020/12/28 07:37:22;;;;;;;12.00;10.65;;;;;;;;;;4149993;34;20146;-60
2020/12/28 07:39:49;;;;;;;11.27;10.07;;;;;;;;;;4145619;34;20565;-60
2020/12/28 07:42:21;;;;;;;11.40;10.15;;;;;;;;;;4150014;34;20100;-59
2020/12/28 07:44:57;;;;;;;11.68;10.48;;;;;;;;;;4151176;34;20111;-60
2020/12/28 07:47:47;;;;;;;11.32;10.15;;;;;;;;;;4149290;34;20126;-59
2020/12/28 07:50:14;;;;;;;12.40;10.30;;;;;;;;;;4145514;34;20118;-60
2020/12/28 07:52:57;;;;;;;14.13;10.85;;;;;;;;;;4151175;34;20191;-60
2020/12/28 07:55:24;;;;;;;12.77;10.77;;;;;;;;;;4138847;34;20126;-61
2020/12/28 07:58:15;;;;;;;12.73;11.23;;;;;;;;;;4134939;34;20103;-60
2020/12/28 08:00:43;;;;;;;15.43;12.02;;;;;;;;;;4150820;34;20138;-60
2020/12/28 08:03:20;;;;;;;14.20;11.65;;;;;;;;;;4150970;34;20091;-60
2020/12/28 08:05:47;;;;;;;13.45;12.02;;;;;;;;;;4150605;34;20119;-60
2020/12/28 08:08:22;;;;;;;13.00;11.10;;;;;;;;;;4147967;34;20111;-59
2020/12/28 08:10:55;;;;;;;13.57;11.57;;;;;;;;;;4145589;34;20508;-61
2020/12/28 08:13:28;;;;;;;12.50;11.15;;;;;;;;;;4150946;34;20117;-60
2020/12/28 08:15:54;;;;;;;15.20;11.82;;;;;;;;;;4145988;34;20110;-60
2020/12/28 08:18:20;;;;;;;14.65;12.00;;;;;;;;;;4151130;34;20640;-60
2020/12/28 08:20:57;;;;;;;17.08;11.65;;;;;;;;;;4150829;34;20123;-60
2020/12/28 08:23:28;;;;;;;15.40;13.02;;;;;;;;;;4150890;34;20493;-62
2020/12/28 08:25:55;;;;;;;14.93;12.25;;;;;;;;;;4150741;34;20205;-62
2020/12/28 08:28:21;;;;;;;14.85;12.45;;;;;;;;;;4148610;34;20130;-63
2020/12/28 08:30:47;;;;;;;18.00;13.02;;;;;;;;;;4134036;34;20095;-63
2020/12/28 08:33:16;;;;;;;14.95;12.52;;;;;;;;;;4150777;34;20091;-62
2020/12/28 08:35:51;;;;;;;17.27;13.15;;;;;;;;;;4150876;34;20486;-63
2020/12/28 08:38:18;;;;;;;14.73;12.90;;;;;;;;;;4150574;34;20211;-62
2020/12/28 08:40:54;;;;;;;15.23;12.55;;;;;;;;;;4150632;34;20095;-62
2020/12/28 08:43:20;;;;;;;18.77;14.10;;;;;;;;;;4150676;34;20099;-61
2020/12/28 08:45:46;;;;;;;15.77;12.23;;;;;;;;;;4150621;34;20115;-62
2020/12/28 08:48:12;;;;;;;15.43;13.15;;;;;;;;;;4147425;34;20107;-62
2020/12/28 08:50:38;;;;;;;16.90;12.75;;;;;;;;;;4150437;34;20273;-59
2020/12/28 08:53:04;;;;;;;14.40;12.30;;;;;;;;;;4150666;34;20100;-60
2020/12/28 08:55:30;;;;;;;13.82;12.43;;;;;;;;;;4148708;34;20225;-60
2020/12/28 08:57:59;;;;;;;15.00;12.52;;;;;;;;;;4145719;34;20108;-61
2020/12/28 09:00:26;;;;;;;13.73;11.45;;;;;;;;;;4148871;34;20470;-60
2020/12/28 09:02:55;;;;;;;13.93;12.50;;;;;;;;;;4150443;34;20220;-60
2020/12/28 09:05:22;;;;;;;16.90;12.88;;;;;;;;;;4150070;34;20557;-61
2020/12/28 09:07:48;;;;;;;14.02;12.52;;;;;;;;;;4150536;34;20139;-59
2020/12/28 09:10:15;;;;;;;14.65;13.05;;;;;;;;;;4150149;34;20589;-58
2020/12/28 09:12:41;;;;;;;13.35;11.65;;;;;;;;;;4150238;34;20553;-60
2020/12/28 09:15:08;;;;;;;13.55;11.70;;;;;;;;;;4146507;34;20127;-61
2020/12/28 09:17:34;;;;;;;14.43;12.48;;;;;;;;;;4121525;34;20106;-62
2020/12/28 09:20:00;;;;;;;14.82;13.15;;;;;;;;;;4137401;34;20103;-61
2020/12/28 09:22:26;;;;;;;14.07;12.37;;;;;;;;;;4137541;34;20188;-60
2020/12/28 09:24:52;;;;;;;14.00;12.60;;;;;;;;;;4148618;34;20246;-60
2020/12/28 09:27:18;;;;;;;15.18;12.98;;;;;;;;;;4149537;34;20261;-60
2020/12/28 09:29:44;;;;;;;13.85;11.85;;;;;;;;;;4144353;34;20519;-61
2020/12/28 09:32:10;;;;;;;14.35;12.85;;;;;;;;;;4148699;34;20220;-61
2020/12/28 09:34:36;;;;;;;13.93;12.30;;;;;;;;;;4132345;34;20235;-61
2020/12/28 09:37:03;;;;;;;14.27;12.77;;;;;;;;;;4148680;34;20233;-61
2020/12/28 09:39:29;;;;;;;15.30;13.70;;;;;;;;;;4148795;34;20548;-61
2020/12/28 09:41:55;;;;;;;14.70;13.20;;;;;;;;;;4150052;34;20103;-61
2020/12/28 09:44:21;;;;;;;14.02;12.45;;;;;;;;;;4147673;34;20134;-61
2020/12/28 09:46:49;;;;;;;14.25;12.73;;;;;;;;;;4144546;34;20215;-61
2020/12/28 09:49:15;;;;;;;14.57;12.80;;;;;;;;;;4147074;34;20146;-61
2020/12/28 09:51:44;;;;;;;15.40;13.27;;;;;;;;;;4149557;34;20541;-61
2020/12/28 09:54:10;;;;;;;14.10;12.63;;;;;;;;;;4146573;34;20522;-62
2020/12/28 09:56:36;;;;;;;14.18;12.55;;;;;;;;;;4143397;34;20115;-61
2020/12/28 09:59:02;;;;;;;14.25;12.48;;;;;;;;;;4149790;34;20106;-61
2020/12/28 10:01:28;;;;;;;13.82;12.43;;;;;;;;;;4149884;34;20203;-61
2020/12/28 10:03:54;;;;;;;12.70;11.40;;;;;;;;;;4149883;34;20543;-61
2020/12/28 10:06:32;;;;;;;12.60;11.20;;;;;;;;;;4148547;34;20123;-61
2020/12/28 10:08:58;;;;;;;12.95;11.65;;;;;;;;;;4163271;34;20524;-60
2020/12/28 10:11:24;;;;;;;18.00;12.48;;;;;;;;;;4150549;34;20122;-61
2020/12/28 10:13:50;;;;;;;14.52;12.77;;;;;;;;;;4150796;34;20224;-62
2020/12/28 10:16:23;;;;;;;14.07;12.57;;;;;;;;;;4150548;34;20145;-61
2020/12/28 10:18:50;;;;;;;15.75;12.77;;;;;;;;;;4150722;34;20458;-61
2020/12/28 10:21:16;;;;;;;13.93;12.45;;;;;;;;;;4139253;34;20099;-61
2020/12/28 10:23:42;;;;;;;14.45;12.95;;;;;;;;;;4163155;34;20621;-62
2020/12/28 10:26:16;;;;;;;16.75;12.23;;;;;;;;;;4150451;34;20095;-62
2020/12/28 10:28:42;;;;;;;13.50;12.10;;;;;;;;;;4150819;34;20216;-62
2020/12/28 10:31:09;;;;;;;14.38;12.75;;;;;;;;;;4162819;34;20138;-62
2020/12/28 10:33:39;;;;;;;15.25;12.98;;;;;;;;;;4162936;34;20130;-61
2020/12/28 10:36:05;;;;;;;14.32;12.45;;;;;;;;;;4150712;34;20107;-62
2020/12/28 10:38:31;;;;;;;14.80;12.07;;;;;;;;;;4139442;34;20194;-61
2020/12/28 10:40:57;;;;;;;12.75;11.02;;;;;;;;;;4150228;34;20091;-61
2020/12/28 10:43:23;;;;;;;11.82;10.57;;;;;;;;;;4139131;34;20092;-64
2020/12/28 10:45:49;;;;;;;12.27;10.98;;;;;;;;;;4150452;34;20211;-60
2020/12/28 10:48:15;;;;;;;12.02;10.73;;;;;;;;;;4163191;34;20295;-60
2020/12/28 10:50:41;;;;;;;13.57;10.90;;;;;;;;;;4162847;34;20513;-60
2020/12/28 10:53:07;;;;;;;13.07;11.43;;;;;;;;;;4163031;34;20126;-61
2020/12/28 10:55:33;;;;;;;13.75;10.90;;;;;;;;;;4162946;34;20194;-60
2020/12/28 10:57:59;;;;;;;13.88;12.35;;;;;;;;;;4150147;34;20142;-60
2020/12/28 11:00:25;;;;;;;13.32;11.93;;;;;;;;;;4163030;34;20130;-60
2020/12/28 11:02:51;;;;;;;15.30;13.00;;;;;;;;;;4152448;34;20119;-60
2020/12/28 11:05:17;;;;;;;16.65;11.68;;;;;;;;;;4140945;34;20549;-60
2020/12/28 11:07:42;;;;;;;14.48;12.57;;;;;;;;;;4152288;34;20138;-60
2020/12/28 11:10:13;;;;;;;14.48;12.82;;;;;;;;;;4164813;34;20202;-60
2020/12/28 11:12:47;;;;;;;17.87;13.45;;;;;;;;;;4165278;34;20183;-59
2020/12/28 11:15:17;;;;;;;16.20;12.48;;;;;;;;;;4165020;34;20118;-60
2020/12/28 11:17:43;;;;;;;15.25;12.63;;;;;;;;;;4152503;34;20113;-61
2020/12/28 11:20:10;;;;;;;20.17;13.20;;;;;;;;;;4151941;34;20166;-61
2020/12/28 11:22:38;;;;;;;14.85;12.30;;;;;;;;;;4164809;34;20123;-60
2020/12/28 11:25:04;;;;;;;15.00;11.70;;;;;;;;;;4152127;34;20091;-60
2020/12/28 11:27:31;;;;;;;11.82;10.57;;;;;;;;;;4164722;34;20451;-61
2020/12/28 11:30:00;;;;;;;12.02;10.82;;;;;;;;;;4164690;34;20142;-60
2020/12/28 11:32:26;;;;;;;12.93;11.63;;;;;;;;;;4164650;34;20533;-60
2020/12/28 11:34:52;;;;;;;13.57;12.13;;;;;;;;;;4164448;34;20119;-60
2020/12/28 11:37:18;;;;;;;14.48;11.70;;;;;;;;;;4164520;34;20483;-60
2020/12/28 11:39:44;;;;;;;14.90;12.02;;;;;;;;;;4151804;34;20108;-60
2020/12/28 11:42:10;;;;;;;15.25;12.68;;;;;;;;;;4151906;34;20118;-60
2020/12/28 11:44:36;;;;;;;13.40;11.90;;;;;;;;;;4164464;34;20190;-60
2020/12/28 11:47:02;;;;;;;15.48;13.05;;;;;;;;;;4164495;34;20440;-59
2020/12/28 11:49:28;;;;;;;13.55;12.15;;;;;;;;;;4164487;34;20125;-59
2020/12/28 11:51:54;;;;;;;14.55;12.80;;;;;;;;;;4151862;34;20088;-60
2020/12/28 11:54:23;;;;;;;15.13;13.52;;;;;;;;;;4151795;34;20211;-59
2020/12/28 11:56:49;;;;;;;15.68;14.00;;;;;;;;;;4151716;34;20122;-60
2020/12/28 11:59:15;;;;;;;16.85;13.55;;;;;;;;;;4164343;34;20139;-60
2020/12/28 12:01:47;;;;;;;13.77;12.32;;;;;;;;;;4164709;34;20186;-60
2020/12/28 12:04:16;;;;;;;14.73;12.75;;;;;;;;;;4140596;34;20137;-60
2020/12/28 12:06:42;;;;;;;16.30;14.00;;;;;;;;;;4164594;34;20210;-60
2020/12/28 12:09:15;;;;;;;16.20;13.43;;;;;;;;;;4151589;34;20138;-60
2020/12/28 12:11:45;;;;;;;19.58;14.90;;;;;;;;;;4164002;34;20114;-59
2020/12/28 12:14:12;;;;;;;19.92;13.62;;;;;;;;;;4164243;34;20219;-59
2020/12/28 12:16:38;;;;;;;15.32;12.00;;;;;;;;;;4164398;34;20097;-59
2020/12/28 12:19:04;;;;;;;14.60;12.57;;;;;;;;;;4151635;34;20111;-59
2020/12/28 12:21:30;;;;;;;15.73;12.32;;;;;;;;;;4164448;34;20095;-59
2020/12/28 12:23:56;;;;;;;15.93;12.77;;;;;;;;;;4164032;34;20119;-60
2020/12/28 12:26:23;;;;;;;17.70;14.73;;;;;;;;;;4151698;34;20106;-60
2020/12/28 12:28:50;;;;;;;24.83;17.25;;;;;;;;;;4164220;34;20117;-59
2020/12/28 12:31:16;;;;;;;22.87;16.85;;;;;;;;;;4151714;34;20118;-59
2020/12/28 12:33:42;;;;;;;24.30;16.75;;;;;;;;;;4164219;34;20211;-60
2020/12/28 12:36:08;;;;;;;23.65;15.82;;;;;;;;;;4151492;34;20251;-61
2020/12/28 12:38:34;;;;;;;23.25;17.02;;;;;;;;;;4163978;34;20146;-60
2020/12/28 12:41:00;;;;;;;27.33;20.70;;;;;;;;;;4164269;34;20125;-60
2020/12/28 12:43:27;;;;;;;24.23;18.08;;;;;;;;;;4164179;34;20508;-60
2020/12/28 12:45:52;;;;;;;24.20;18.05;;;;;;;;;;4164074;34;20162;-61
2020/12/28 12:48:18;;;;;;;25.00;19.05;;;;;;;;;;4151184;34;20142;-61
2020/12/28 12:50:44;;;;;;;29.45;20.55;;;;;;;;;;4151154;34;20194;-61
2020/12/28 12:53:10;;;;;;;27.40;21.02;;;;;;;;;;4163873;34;20488;-61
2020/12/28 12:55:40;;;;;;;23.98;17.95;;;;;;;;;;4163859;34;20211;-60
2020/12/28 12:58:06;;;;;;;20.23;16.37;;;;;;;;;;4163829;34;20468;-61
2020/12/28 13:00:32;;;;;;;17.45;14.38;;;;;;;;;;4151268;34;20119;-59
2020/12/28 13:02:58;;;;;;;21.40;17.23;;;;;;;;;;4163916;34;20238;-60
2020/12/28 13:05:23;;;;;;;20.08;15.57;;;;;;;;;;4148848;34;20142;-61
2020/12/28 13:07:49;;;;;;;22.85;18.55;;;;;;;;;;4150468;34;20142;-60
2020/12/28 13:10:16;;;;;;;24.95;17.60;;;;;;;;;;4150026;34;20192;-60
2020/12/28 13:12:42;;;;;;;22.87;18.85;;;;;;;;;;4133554;34;20124;-61
2020/12/28 13:15:09;;;;;;;27.67;21.33;;;;;;;;;;4150149;34;20118;-60
2020/12/28 13:17:35;;;;;;;29.85;21.42;;;;;;;;;;4132425;34;20112;-61
2020/12/28 13:20:05;;;;;;;28.80;21.50;;;;;;;;;;4148837;34;20091;-60
2020/12/28 13:22:32;;;;;;;26.90;20.65;;;;;;;;;;4150394;34;20195;-61
2020/12/28 13:24:58;;;;;;;28.23;20.40;;;;;;;;;;4149791;34;20181;-61
2020/12/28 13:27:24;;;;;;;23.50;18.37;;;;;;;;;;4150081;34;20219;-60
2020/12/28 13:29:50;;;;;;;21.77;17.77;;;;;;;;;;4144998;34;20504;-60
2020/12/28 13:32:16;;;;;;;21.87;17.15;;;;;;;;;;4137540;34;20111;-61
2020/12/28 13:34:42;;;;;;;26.25;19.42;;;;;;;;;;4150038;34;20101;-60
2020/12/28 13:37:11;;;;;;;25.23;18.00;;;;;;;;;;4146526;34;20170;-59
2020/12/28 13:39:38;;;;;;;19.05;16.20;;;;;;;;;;4143575;34;20104;-60
2020/12/28 13:42:04;;;;;;;18.50;16.40;;;;;;;;;;4150111;34;20302;-59
2020/12/28 13:44:30;;;;;;;23.58;19.60;;;;;;;;;;4148780;34;20141;-59
2020/12/28 13:46:56;;;;;;;21.70;18.40;;;;;;;;;;4150083;34;20554;-59
2020/12/28 13:49:22;;;;;;;23.33;17.58;;;;;;;;;;4149917;34;20126;-59
2020/12/28 13:51:48;;;;;;;20.08;16.98;;;;;;;;;;4149955;34;20192;-59
2020/12/28 13:54:14;;;;;;;20.12;17.87;;;;;;;;;;4135843;34;20186;-59
2020/12/28 13:56:40;;;;;;;18.98;14.70;;;;;;;;;;4150165;34;20099;-60
2020/12/28 13:59:06;;;;;;;17.08;15.25;;;;;;;;;;4149960;34;20162;-60
2020/12/28 14:01:31;;;;;;;17.10;15.25;;;;;;;;;;4143153;34;20139;-59
2020/12/28 14:03:57;;;;;;;18.20;16.17;;;;;;;;;;4149623;34;20532;-60
2020/12/28 14:06:24;;;;;;;17.87;15.98;;;;;;;;;;4149921;34;20131;-59
2020/12/28 14:08:51;;;;;;;18.33;15.20;;;;;;;;;;4149774;34;20117;-59
2020/12/28 14:11:20;;;;;;;17.40;15.30;;;;;;;;;;4149643;34;20590;-61
2020/12/28 14:13:47;;;;;;;16.45;14.68;;;;;;;;;;4143882;34;20133;-59
2020/12/28 14:16:13;;;;;;;18.98;16.02;;;;;;;;;;4136968;34;20474;-60
2020/12/28 14:18:39;;;;;;;21.15;16.30;;;;;;;;;;4149706;34;20271;-59
2020/12/28 14:21:06;;;;;;;16.52;14.82;;;;;;;;;;4149776;34;20123;-60
2020/12/28 14:23:36;;;;;;;15.18;12.57;;;;;;;;;;4131946;34;20138;-61
2020/12/28 14:26:02;;;;;;;17.58;14.32;;;;;;;;;;4148287;34;20111;-60
2020/12/28 14:28:28;;;;;;;15.82;13.88;;;;;;;;;;4137386;34;20103;-63
2020/12/28 14:30:54;;;;;;;15.35;13.73;;;;;;;;;;4126136;34;20111;-62